createdAt,value
2023-03-21T00:00:31.897Z,11.78
2023-03-21T00:03:00.105Z,11.77
2023-03-21T00:05:28.274Z,11.77
2023-03-21T00:07:56.239Z,11.79
2023-03-21T00:10:39.018Z,11.61
2023-03-21T00:13:08.225Z,11.75
2023-03-21T00:16:04.011Z,11.63
2023-03-21T00:18:36.832Z,11.55
2023-03-21T00:21:37.616Z,11.56
2023-03-21T00:23:54.943Z,11.63
2023-03-21T00:26:23.586Z,11.68
2023-03-21T00:28:52.039Z,11.69
2023-03-21T00:31:23.176Z,11.74
2023-03-21T00:33:51.191Z,11.74
2023-03-21T00:36:19.191Z,11.70
2023-03-21T00:38:47.088Z,11.72
2023-03-21T00:41:25.796Z,11.75
2023-03-21T00:43:59.637Z,11.59
2023-03-21T00:46:42.748Z,11.69
2023-03-21T00:49:13.574Z,11.67
2023-03-21T00:51:43.633Z,11.65
2023-03-21T00:54:13.594Z,11.60
2023-03-21T00:56:42.323Z,11.61
2023-03-21T00:59:11.176Z,11.62
2023-03-21T01:01:40.400Z,11.55
2023-03-21T01:04:13.614Z,11.52
2023-03-21T01:06:43.307Z,11.51
2023-03-21T01:09:14.939Z,11.50
2023-03-21T01:11:43.282Z,11.47
2023-03-21T01:14:28.564Z,11.45
2023-03-21T01:16:57.943Z,11.43
2023-03-21T01:19:41.006Z,11.39
2023-03-21T01:22:16.405Z,11.35
2023-03-21T01:24:52.956Z,11.33
2023-03-21T01:27:23.580Z,11.34
2023-03-21T01:29:51.994Z,11.32
2023-03-21T01:32:21.837Z,11.31
2023-03-21T01:34:49.949Z,11.31
2023-03-21T01:37:20.000Z,11.24
2023-03-21T01:39:50.485Z,11.25
2023-03-21T01:42:18.421Z,11.27
2023-03-21T01:44:56.725Z,11.12
2023-03-21T01:47:27.198Z,11.12
2023-03-21T01:50:10.400Z,11.15
2023-03-21T01:52:56.673Z,11.24
2023-03-21T01:55:33.944Z,11.29
2023-03-21T01:58:14.083Z,11.32
2023-03-21T02:00:52.415Z,11.34
2023-03-21T02:03:38.229Z,11.38
2023-03-21T02:06:31.998Z,11.37
2023-03-21T02:09:13.163Z,11.38
2023-03-21T02:11:46.405Z,11.40
2023-03-21T02:14:26.567Z,11.35
2023-03-21T02:17:11.925Z,11.40
2023-03-21T02:20:42.905Z,11.36
2023-03-21T02:23:45.520Z,11.19
2023-03-21T02:26:52.499Z,11.11
2023-03-21T02:29:54.835Z,11.14
2023-03-21T02:32:38.100Z,11.10
2023-03-21T02:35:25.757Z,11.07
2023-03-21T02:38:01.371Z,11.08
2023-03-21T02:40:36.322Z,11.06
2023-03-21T02:43:20.861Z,11.06
2023-03-21T02:45:54.251Z,11.00
2023-03-21T02:48:35.337Z,10.92
2023-03-21T02:51:14.088Z,10.90
2023-03-21T02:53:51.717Z,10.87
2023-03-21T02:56:27.333Z,10.90
2023-03-21T02:58:57.227Z,10.89
2023-03-21T03:01:26.025Z,10.89
2023-03-21T03:03:54.294Z,10.85
2023-03-21T03:06:27.857Z,10.80
2023-03-21T03:09:08.762Z,10.74
2023-03-21T03:11:38.892Z,10.69
2023-03-21T03:17:21.421Z,10.46
2023-03-21T03:20:16.201Z,10.46
2023-03-21T03:22:53.228Z,10.43
2023-03-21T03:25:41.715Z,10.42
2023-03-21T03:28:12.788Z,10.43
2023-03-21T03:30:48.694Z,10.39
2023-03-21T03:33:26.697Z,10.38
2023-03-21T03:36:04.916Z,10.38
2023-03-21T03:38:38.046Z,10.32
2023-03-21T03:41:11.725Z,10.29
2023-03-21T03:43:54.001Z,10.35
2023-03-21T03:46:29.383Z,10.32
2023-03-21T03:49:01.597Z,10.33
2023-03-21T03:51:34.921Z,10.35
2023-03-21T03:54:26.994Z,10.35
2023-03-21T03:56:57.515Z,10.37
2023-03-21T03:59:26.207Z,10.28
2023-03-21T04:02:15.111Z,10.19
2023-03-21T04:04:43.357Z,10.16
2023-03-21T04:07:11.367Z,10.08
2023-03-21T04:09:44.531Z,10.04
2023-03-21T04:12:16.159Z,10.04
2023-03-21T04:15:04.905Z,10.05
2023-03-21T04:17:39.597Z,10.07
2023-03-21T04:20:15.067Z,10.04
2023-03-21T04:22:44.815Z,10.08
2023-03-21T04:25:18.994Z,10.08
2023-03-21T04:27:57.508Z,10.13
2023-03-21T04:30:39.788Z,10.16
2023-03-21T04:33:14.233Z,10.16
2023-03-21T04:35:50.202Z,10.13
2023-03-21T04:38:19.274Z,10.12
2023-03-21T04:40:47.263Z,10.09
2023-03-21T04:43:16.588Z,10.13
2023-03-21T04:45:44.581Z,10.11
2023-03-21T04:48:14.302Z,10.11
2023-03-21T04:50:42.385Z,10.14
2023-03-21T04:53:10.295Z,10.12
2023-03-21T04:55:38.599Z,10.08
2023-03-21T04:58:07.639Z,10.05
2023-03-21T05:00:38.447Z,10.05
2023-03-21T05:03:09.002Z,10.11
2023-03-21T05:05:37.854Z,10.18
2023-03-21T05:08:07.333Z,10.21
2023-03-21T05:10:35.567Z,10.16
2023-03-21T05:13:03.775Z,10.16
2023-03-21T05:15:34.114Z,10.12
2023-03-21T05:18:10.967Z,9.97
2023-03-21T05:20:47.237Z,9.84
2023-03-21T05:23:18.467Z,9.85
2023-03-21T05:25:46.787Z,9.95
2023-03-21T05:28:31.358Z,10.10
2023-03-21T05:31:01.703Z,10.10
2023-03-21T05:33:31.545Z,10.19
2023-03-21T05:35:59.801Z,10.21
2023-03-21T05:38:31.549Z,10.23
2023-03-21T05:41:00.197Z,10.25
2023-03-21T05:43:28.927Z,10.37
2023-03-21T05:45:57.169Z,10.46
2023-03-21T05:48:28.791Z,10.64
2023-03-21T05:51:12.428Z,10.73
2023-03-21T05:53:40.400Z,10.78
2023-03-21T05:56:09.843Z,10.77
2023-03-21T05:58:51.813Z,10.82
2023-03-21T06:01:20.753Z,10.80
2023-03-21T06:03:57.040Z,10.71
2023-03-21T06:06:29.450Z,10.73
2023-03-21T06:09:01.991Z,10.77
2023-03-21T06:11:34.601Z,10.84
2023-03-21T06:14:31.916Z,10.89
2023-03-21T06:17:20.176Z,10.98
2023-03-21T06:19:52.893Z,11.01
2023-03-21T06:22:35.876Z,11.00
2023-03-21T06:25:05.449Z,10.95
2023-03-21T06:27:33.611Z,10.94
2023-03-21T06:30:01.783Z,10.92
2023-03-21T06:32:35.640Z,10.93
2023-03-21T06:35:11.123Z,10.92
2023-03-21T06:37:40.923Z,11.00
2023-03-21T06:40:13.753Z,11.03
2023-03-21T06:42:43.328Z,11.02
2023-03-21T06:45:12.746Z,11.07
2023-03-21T06:47:40.818Z,11.05
2023-03-21T06:50:16.554Z,11.08
2023-03-21T06:52:47.190Z,11.14
2023-03-21T06:55:16.085Z,11.18
2023-03-21T06:57:44.602Z,11.21
2023-03-21T07:00:14.648Z,11.32
2023-03-21T07:02:48.302Z,11.42
2023-03-21T07:05:19.786Z,11.39
2023-03-21T07:07:49.470Z,11.31
2023-03-21T07:10:17.591Z,11.28
2023-03-21T07:13:02.748Z,11.23
2023-03-21T07:15:49.261Z,11.17
2023-03-21T07:18:17.293Z,11.13
2023-03-21T07:20:50.909Z,11.09
2023-03-21T07:23:21.592Z,11.05
2023-03-21T07:25:50.543Z,11.14
2023-03-21T07:28:19.840Z,11.13
2023-03-21T07:30:53.918Z,11.31
2023-03-21T07:33:23.185Z,11.35
2023-03-21T07:35:51.577Z,11.38
2023-03-21T07:38:21.787Z,11.41
2023-03-21T07:40:50.425Z,11.47
2023-03-21T07:45:57.891Z,11.54
2023-03-21T07:48:27.757Z,11.53
2023-03-21T07:50:55.603Z,11.64
2023-03-21T07:53:24.986Z,11.69
2023-03-21T07:55:53.143Z,11.76
2023-03-21T07:58:21.091Z,11.81
2023-03-21T08:00:49.090Z,11.87
2023-03-21T08:03:17.156Z,11.86
2023-03-21T08:05:45.555Z,11.93
2023-03-21T08:08:13.839Z,11.96
2023-03-21T08:10:44.826Z,11.98
2023-03-21T08:13:13.814Z,12.08
2023-03-21T08:15:42.498Z,12.14
2023-03-21T08:18:11.446Z,12.19
2023-03-21T08:20:39.682Z,12.24
2023-03-21T08:23:07.594Z,12.27
2023-03-21T08:25:35.703Z,12.29
2023-03-21T08:28:05.420Z,12.33
2023-03-21T08:30:33.482Z,12.37
2023-03-21T08:33:02.303Z,12.47
2023-03-21T08:35:31.481Z,12.53
2023-03-21T08:37:59.402Z,12.58
2023-03-21T08:40:27.293Z,12.61
2023-03-21T08:42:55.974Z,12.64
2023-03-21T08:45:27.073Z,12.67
2023-03-21T08:47:56.080Z,12.72
2023-03-21T08:50:26.622Z,12.75
2023-03-21T08:52:55.049Z,12.79
2023-03-21T08:55:22.995Z,12.81
2023-03-21T08:57:50.881Z,12.82
2023-03-21T09:00:20.718Z,12.87
2023-03-21T09:02:52.306Z,12.91
2023-03-21T09:05:20.426Z,12.98
2023-03-21T09:07:49.675Z,13.00
2023-03-21T09:10:21.434Z,13.03
2023-03-21T09:12:51.169Z,13.09
2023-03-21T09:15:21.836Z,13.13
2023-03-21T09:17:53.222Z,13.19
2023-03-21T09:20:26.343Z,13.24
2023-03-21T09:22:55.009Z,13.20
2023-03-21T09:25:23.750Z,13.39
2023-03-21T09:27:54.394Z,13.52
2023-03-21T09:30:24.882Z,13.72
2023-03-21T09:32:55.956Z,13.87
2023-03-21T09:35:24.788Z,14.08
2023-03-21T09:37:52.843Z,14.21
2023-03-21T09:40:25.579Z,14.33
2023-03-21T09:43:05.933Z,14.41
2023-03-21T09:45:39.703Z,14.51
2023-03-21T09:48:20.060Z,14.59
2023-03-21T09:50:48.605Z,14.47
2023-03-21T09:53:23.628Z,14.72
2023-03-21T09:55:52.024Z,14.75
2023-03-21T09:58:27.168Z,14.87
2023-03-21T10:01:02.503Z,15.05
2023-03-21T10:03:35.177Z,15.05
2023-03-21T10:06:08.410Z,15.05
2023-03-21T10:08:38.608Z,15.05
2023-03-21T10:11:13.297Z,15.07
2023-03-21T10:13:45.669Z,15.06
2023-03-21T10:16:16.842Z,15.05
2023-03-21T10:18:46.889Z,15.01
2023-03-21T10:21:47.569Z,14.98
2023-03-21T10:24:13.143Z,14.96
2023-03-21T10:26:42.130Z,14.96
2023-03-21T10:29:15.096Z,15.00
2023-03-21T10:31:44.276Z,15.10
2023-03-21T10:34:19.116Z,15.18
2023-03-21T10:36:47.948Z,15.12
2023-03-21T10:39:26.264Z,15.07
2023-03-21T10:41:54.773Z,15.08
2023-03-21T10:44:22.968Z,15.04
2023-03-21T10:46:54.159Z,15.01
2023-03-21T10:49:23.689Z,15.08
2023-03-21T10:51:54.642Z,15.11
2023-03-21T10:54:27.761Z,15.09
2023-03-21T10:56:58.993Z,15.15
2023-03-21T10:59:35.682Z,15.15
2023-03-21T11:02:05.838Z,15.23
2023-03-21T11:04:38.027Z,15.35
2023-03-21T11:07:08.216Z,15.59
2023-03-21T11:09:48.080Z,15.85
2023-03-21T11:12:17.597Z,15.97
2023-03-21T11:14:47.399Z,15.99
2023-03-21T11:17:29.200Z,15.93
2023-03-21T11:20:02.046Z,15.88
2023-03-21T11:22:32.154Z,15.79
2023-03-21T11:25:01.816Z,15.65
2023-03-21T11:27:31.159Z,15.48
2023-03-21T11:30:02.119Z,15.31
2023-03-21T11:32:34.909Z,15.18
2023-03-21T11:35:07.496Z,15.06
2023-03-21T11:37:40.481Z,14.96
2023-03-21T11:40:21.060Z,14.86
2023-03-21T11:42:51.831Z,14.81
2023-03-21T11:45:22.038Z,14.82
2023-03-21T11:47:51.879Z,14.89
2023-03-21T11:50:28.407Z,15.12
2023-03-21T11:53:13.853Z,15.30
2023-03-21T11:55:52.552Z,15.39
2023-03-21T11:58:38.849Z,15.43
2023-03-21T12:01:17.656Z,15.50
2023-03-21T12:03:49.462Z,15.42
2023-03-21T12:06:25.867Z,15.26
2023-03-21T12:09:07.107Z,15.19
2023-03-21T12:11:42.005Z,15.02
2023-03-21T12:14:20.117Z,15.03
2023-03-21T12:17:05.961Z,15.07
2023-03-21T12:19:56.567Z,15.18
2023-03-21T12:22:33.797Z,15.51
2023-03-21T12:25:08.706Z,15.93
2023-03-21T12:27:46.555Z,16.13
2023-03-21T12:30:25.289Z,16.31
2023-03-21T12:33:09.062Z,16.35
2023-03-21T12:35:51.980Z,16.31
2023-03-21T12:38:25.232Z,16.26
2023-03-21T12:41:12.818Z,16.28
2023-03-21T12:43:48.766Z,16.09
2023-03-21T12:46:23.417Z,16.04
2023-03-21T12:48:55.177Z,16.00
2023-03-21T12:51:27.564Z,15.93
2023-03-21T12:54:03.402Z,15.97
2023-03-21T12:56:33.713Z,16.09
2023-03-21T12:59:12.146Z,16.22
2023-03-21T13:01:41.564Z,16.36
2023-03-21T13:04:27.882Z,16.53
2023-03-21T13:06:58.960Z,16.61
2023-03-21T13:09:37.782Z,16.68
2023-03-21T13:12:20.968Z,16.68
2023-03-21T13:15:00.368Z,16.56
2023-03-21T13:17:35.047Z,16.52
2023-03-21T13:20:12.472Z,16.47
2023-03-21T13:22:40.485Z,16.50
2023-03-21T13:25:19.503Z,16.49
2023-03-21T13:27:54.196Z,16.43
2023-03-21T13:30:26.068Z,16.42
2023-03-21T13:33:05.685Z,16.65
2023-03-21T13:35:39.211Z,16.73
2023-03-21T13:38:16.386Z,16.63
2023-03-21T13:40:49.575Z,16.87
2023-03-21T13:43:40.753Z,17.40
2023-03-21T13:46:11.146Z,17.59
2023-03-21T13:48:57.739Z,17.41
2023-03-21T13:51:47.469Z,17.37
2023-03-21T13:54:22.522Z,17.17
2023-03-21T13:56:54.331Z,17.01
2023-03-21T13:59:38.458Z,16.90
2023-03-21T14:02:24.244Z,16.98
2023-03-21T14:05:05.253Z,16.92
2023-03-21T14:07:36.730Z,16.77
2023-03-21T14:10:09.669Z,16.72
2023-03-21T14:12:43.425Z,16.55
2023-03-21T14:15:19.522Z,16.63
2023-03-21T14:17:52.113Z,16.78
2023-03-21T14:20:22.760Z,16.91
2023-03-21T14:22:51.249Z,16.96
2023-03-21T14:25:20.998Z,16.94
2023-03-21T14:27:54.281Z,17.22
2023-03-21T14:30:25.598Z,17.51
2023-03-21T14:32:55.997Z,17.82
2023-03-21T14:35:24.566Z,17.92
2023-03-21T14:37:52.458Z,17.93
2023-03-21T14:40:23.141Z,18.13
2023-03-21T14:42:52.690Z,18.31
2023-03-21T14:45:24.001Z,18.47
2023-03-21T14:48:05.636Z,18.60
2023-03-21T14:50:41.137Z,18.81
2023-03-21T14:53:15.409Z,19.12
2023-03-21T14:55:45.327Z,19.34
2023-03-21T14:58:17.895Z,19.33
2023-03-21T15:00:49.856Z,19.40
2023-03-21T15:03:19.717Z,19.31
2023-03-21T15:05:47.948Z,19.37
2023-03-21T15:08:18.420Z,19.33
2023-03-21T15:11:06.247Z,19.41
2023-03-21T15:13:38.289Z,19.50
2023-03-21T15:16:07.177Z,19.56
2023-03-21T15:18:38.149Z,19.46
2023-03-21T15:21:10.282Z,19.66
2023-03-21T15:23:41.402Z,19.75
2023-03-21T15:26:16.145Z,19.81
2023-03-21T15:28:47.774Z,19.76
2023-03-21T15:31:18.893Z,19.77
2023-03-21T15:33:48.676Z,19.90
2023-03-21T15:36:20.953Z,19.86
2023-03-21T15:38:49.651Z,19.86
2023-03-21T15:41:29.113Z,19.61
2023-03-21T15:44:12.440Z,19.69
2023-03-21T15:46:42.923Z,19.71
2023-03-21T15:49:18.966Z,19.54
2023-03-21T15:51:50.136Z,19.27
2023-03-21T15:54:24.544Z,19.23
2023-03-21T15:56:55.980Z,19.26
2023-03-21T15:59:31.310Z,19.09
2023-03-21T16:01:59.478Z,19.03
2023-03-21T16:04:27.466Z,19.03
2023-03-21T16:07:00.190Z,19.06
2023-03-21T16:09:28.443Z,19.02
2023-03-21T16:11:57.488Z,19.07
2023-03-21T16:14:28.523Z,19.00
2023-03-21T16:16:57.336Z,18.57
2023-03-21T16:19:27.704Z,18.31
2023-03-21T16:21:55.660Z,18.24
2023-03-21T16:24:23.511Z,18.13
2023-03-21T16:26:53.430Z,18.11
2023-03-21T16:29:22.267Z,18.05
2023-03-21T16:31:51.586Z,17.84
2023-03-21T16:34:19.535Z,17.59
2023-03-21T16:36:48.000Z,17.32
2023-03-21T16:39:19.089Z,17.06
2023-03-21T16:41:47.442Z,16.87
2023-03-21T16:44:15.496Z,16.73
2023-03-21T16:46:43.781Z,16.56
2023-03-21T16:49:21.340Z,16.38
2023-03-21T16:51:49.234Z,16.21
2023-03-21T16:54:17.217Z,16.05
2023-03-21T16:56:48.063Z,15.88
2023-03-21T16:59:16.436Z,15.74
2023-03-21T17:01:45.852Z,15.63
2023-03-21T17:04:14.861Z,15.50
2023-03-21T17:06:47.369Z,15.36
2023-03-21T17:09:16.982Z,15.27
2023-03-21T17:11:45.256Z,15.14
2023-03-21T17:14:16.219Z,15.09
2023-03-21T17:16:44.283Z,14.98
2023-03-21T17:19:14.902Z,14.90
2023-03-21T17:21:42.891Z,14.81
2023-03-21T17:24:12.374Z,14.75
2023-03-21T17:26:40.659Z,14.72
2023-03-21T17:29:08.837Z,14.65
2023-03-21T17:31:38.052Z,14.67
2023-03-21T17:34:06.247Z,14.62
2023-03-21T17:36:36.247Z,14.61
2023-03-21T17:39:05.899Z,14.54
2023-03-21T17:41:35.815Z,14.10
2023-03-21T17:44:03.901Z,14.45
2023-03-21T17:46:36.530Z,14.35
2023-03-21T17:49:05.058Z,14.38
2023-03-21T17:51:33.190Z,14.35
2023-03-21T17:54:01.285Z,14.26
2023-03-21T17:56:31.065Z,14.31
2023-03-21T17:59:02.020Z,14.28
2023-03-21T18:01:30.963Z,14.05
2023-03-21T18:04:02.122Z,14.21
2023-03-21T18:06:30.098Z,14.18
2023-03-21T18:08:59.635Z,14.15
2023-03-21T18:11:28.658Z,14.10
2023-03-21T18:14:09.897Z,14.01
2023-03-21T18:16:44.629Z,13.96
2023-03-21T18:19:13.777Z,13.80
2023-03-21T18:21:45.293Z,13.88
2023-03-21T18:24:14.361Z,13.85
2023-03-21T18:26:42.565Z,13.84
2023-03-21T18:32:06.890Z,13.76
2023-03-21T18:34:35.949Z,13.70
2023-03-21T18:37:04.437Z,13.62
2023-03-21T18:39:33.253Z,13.61
2023-03-21T18:42:02.452Z,13.58
2023-03-21T18:44:37.317Z,13.59
2023-03-21T18:47:08.588Z,13.56
2023-03-21T18:52:27.320Z,13.51
2023-03-21T18:54:55.458Z,13.46
2023-03-21T18:57:39.368Z,13.47
2023-03-21T19:00:15.397Z,13.45
2023-03-21T19:02:48.030Z,13.43
2023-03-21T19:05:18.598Z,13.43
2023-03-21T19:07:47.758Z,13.40
2023-03-21T19:10:18.652Z,13.43
2023-03-21T19:12:47.947Z,13.45
2023-03-21T19:15:19.427Z,13.45
2023-03-21T19:20:38.317Z,13.35
2023-03-21T19:23:09.348Z,13.30
2023-03-21T19:25:38.132Z,13.32
2023-03-21T19:28:06.459Z,13.33
2023-03-21T19:30:34.750Z,13.30
2023-03-21T19:33:03.965Z,13.32
2023-03-21T19:35:32.048Z,13.30
2023-03-21T19:37:59.928Z,13.25
2023-03-21T19:40:27.902Z,13.26
2023-03-21T19:42:57.640Z,13.29
2023-03-21T19:45:26.157Z,13.36
2023-03-21T19:47:54.010Z,13.33
2023-03-21T19:50:49.173Z,13.35
2023-03-21T19:53:17.052Z,13.38
2023-03-21T19:55:44.912Z,13.43
2023-03-21T19:58:16.175Z,13.47
2023-03-21T20:00:45.791Z,13.44
2023-03-21T20:03:13.805Z,13.46
2023-03-21T20:05:44.089Z,13.48
2023-03-21T20:08:12.248Z,13.50
2023-03-21T20:10:40.668Z,13.52
2023-03-21T20:13:08.914Z,13.48
2023-03-21T20:15:46.012Z,13.33
2023-03-21T20:18:16.027Z,13.27
2023-03-21T20:20:46.309Z,13.21
2023-03-21T20:23:16.024Z,13.15
2023-03-21T20:25:45.583Z,13.02
2023-03-21T20:28:17.271Z,13.03
2023-03-21T20:30:53.976Z,13.06
2023-03-21T20:33:22.174Z,13.14
2023-03-21T20:38:45.666Z,13.24
2023-03-21T20:41:13.611Z,13.14
2023-03-21T20:46:29.972Z,13.04
2023-03-21T20:48:59.726Z,13.06
2023-03-21T20:54:17.770Z,12.96
2023-03-21T20:56:45.694Z,12.98
2023-03-21T20:59:25.636Z,12.99
2023-03-21T21:01:55.086Z,12.95
2023-03-21T21:04:34.327Z,12.88
2023-03-21T21:07:16.147Z,12.83
2023-03-21T21:09:44.728Z,12.81
2023-03-21T21:12:13.032Z,12.88
2023-03-21T21:14:41.676Z,12.86
2023-03-21T21:17:30.774Z,12.80
2023-03-21T21:19:58.369Z,12.55
2023-03-21T21:22:28.219Z,12.19
2023-03-21T21:24:56.206Z,12.10
2023-03-21T21:27:24.091Z,12.03
2023-03-21T21:29:52.321Z,12.11
2023-03-21T21:32:20.748Z,12.31
2023-03-21T21:34:48.971Z,12.38
2023-03-21T21:37:16.803Z,12.39
2023-03-21T21:39:46.725Z,12.38
2023-03-21T21:42:15.216Z,12.38
2023-03-21T21:44:44.917Z,12.36
2023-03-21T21:47:13.080Z,12.44
2023-03-21T21:49:41.343Z,12.44
2023-03-21T21:52:13.276Z,12.41
2023-03-21T21:54:45.541Z,12.36
2023-03-21T21:57:18.878Z,12.33
2023-03-21T21:59:46.973Z,12.35
2023-03-21T22:02:16.644Z,12.38
2023-03-21T22:04:44.800Z,12.27
2023-03-21T22:07:14.534Z,11.98
2023-03-21T22:09:43.341Z,11.79
2023-03-21T22:12:11.616Z,11.76
2023-03-21T22:14:40.962Z,11.90
2023-03-21T22:17:09.132Z,12.04
2023-03-21T22:19:39.145Z,12.16
2023-03-21T22:22:08.112Z,12.24
2023-03-21T22:24:37.457Z,12.33
2023-03-21T22:27:05.907Z,12.38
2023-03-21T22:29:33.880Z,12.44
2023-03-21T22:32:03.189Z,12.43
2023-03-21T22:34:31.080Z,12.46
2023-03-21T22:36:59.661Z,12.48
2023-03-21T22:39:28.570Z,12.51
2023-03-21T22:42:00.874Z,12.52
2023-03-21T22:44:34.425Z,12.53
2023-03-21T22:47:05.195Z,12.54
2023-03-21T22:49:33.757Z,12.49
2023-03-21T22:52:03.261Z,12.38
2023-03-21T22:54:31.979Z,12.40
2023-03-21T22:57:00.210Z,12.31
2023-03-21T22:59:28.427Z,12.33
2023-03-21T23:01:56.719Z,12.27
2023-03-21T23:04:27.302Z,12.30
2023-03-21T23:06:55.750Z,12.33
2023-03-21T23:09:23.965Z,12.26
2023-03-21T23:11:51.932Z,12.21
2023-03-21T23:14:20.830Z,12.14
2023-03-21T23:16:49.689Z,12.06
2023-03-21T23:19:19.918Z,12.16
2023-03-21T23:21:49.138Z,12.20
2023-03-21T23:24:17.082Z,12.25
2023-03-21T23:26:44.991Z,12.21
2023-03-21T23:29:12.858Z,12.00
2023-03-21T23:31:41.516Z,11.76
2023-03-21T23:34:09.473Z,11.43
2023-03-21T23:36:37.513Z,11.30
2023-03-21T23:39:06.772Z,11.29
2023-03-21T23:41:34.724Z,11.43
2023-03-21T23:44:02.750Z,11.65
2023-03-21T23:46:31.889Z,11.82
2023-03-21T23:48:59.774Z,11.96
2023-03-21T23:51:27.828Z,12.05
2023-03-21T23:53:56.588Z,12.16
2023-03-21T23:56:28.305Z,12.24
2023-03-21T23:58:58.239Z,12.29
